Hodeidah International Airport


Codes: OYHD/HOD
Name: Hodeidah International Airport
City: Hodeida
Country: Yemen
Elevation: 41 ft.
Wikipedia:

Photos at Hodeidah International Airport


   Photos courtesy of SpottingLog. You can add your own sightings and photos by signing up for a free trial today.



No photos found.

Weather at Hodeidah International Airport


Time (UTC)DescriptionTempratureWindCloud coverageVisibilityPressureHumidity
17-Apr-2024 21:00Overcast Clouds29°C9 mph, NW86%10000m1008hPa72%
18-Apr-2024 00:00Overcast Clouds29°C2 mph, NW88%10000m1008hPa74%
18-Apr-2024 03:00Overcast Clouds29°C4 mph, SW95%10000m1009hPa77%
18-Apr-2024 06:00Overcast Clouds31°C9 mph, SW86%10000m1010hPa66%
18-Apr-2024 09:00Broken Clouds33°C11 mph, SW68%10000m1009hPa63%
18-Apr-2024 12:00Broken Clouds34°C11 mph, SW84%10000m1006hPa60%
18-Apr-2024 15:00Broken Clouds32°C4 mph, SE76%10000m1007hPa57%
18-Apr-2024 18:00Broken Clouds33°C4 mph, N55%10000m1007hPa55%
18-Apr-2024 21:00Broken Clouds31°C11 mph, NW74%10000m1006hPa67%
19-Apr-2024 00:00Overcast Clouds30°C9 mph, SW87%10000m1006hPa76%
19-Apr-2024 03:00Scattered Clouds29°C7 mph, SW46%10000m1008hPa86%
19-Apr-2024 06:00Light Rain32°C4 mph, W56%10000m1009hPa67%
19-Apr-2024 09:00Few Clouds34°C11 mph, W23%10000m1007hPa59%
19-Apr-2024 12:00Few Clouds34°C11 mph, W12%10000m1004hPa58%
19-Apr-2024 15:00Clear Sky32°C0 mph, N1%10000m1004hPa60%
19-Apr-2024 18:00Clear Sky33°C7 mph, NE1%10000m1005hPa57%
19-Apr-2024 21:00Clear Sky33°C9 mph, NW0%10000m1005hPa60%
20-Apr-2024 00:00Clear Sky30°C9 mph, W0%10000m1005hPa78%
20-Apr-2024 03:00Light Rain30°C7 mph, W9%10000m1006hPa79%
20-Apr-2024 06:00Light Rain32°C9 mph, W35%10000m1008hPa62%
20-Apr-2024 09:00Scattered Clouds33°C11 mph, W26%10000m1007hPa60%
20-Apr-2024 12:00Scattered Clouds34°C11 mph, W41%10000m1004hPa58%
20-Apr-2024 15:00Clear Sky32°C11 mph, NW10%10000m1005hPa66%
20-Apr-2024 18:00Clear Sky31°C4 mph, NW6%10000m1006hPa68%
20-Apr-2024 21:00Scattered Clouds30°C11 mph, NW35%10000m1006hPa75%
21-Apr-2024 00:00Broken Clouds29°C9 mph, NW63%10000m1006hPa78%
21-Apr-2024 03:00Light Rain29°C4 mph, NW100%10000m1007hPa79%
21-Apr-2024 06:00Overcast Clouds32°C9 mph, W100%10000m1009hPa64%
21-Apr-2024 09:00Broken Clouds34°C11 mph, W75%10000m1008hPa58%
21-Apr-2024 12:00Broken Clouds34°C13 mph, W56%10000m1006hPa54%
21-Apr-2024 15:00Clear Sky32°C4 mph, NW3%10000m1007hPa64%
21-Apr-2024 18:00Clear Sky30°C4 mph, NW2%10000m1007hPa73%
21-Apr-2024 21:00Clear Sky31°C2 mph, NE6%10000m1007hPa66%
22-Apr-2024 00:00Clear Sky30°C9 mph, W5%10000m1006hPa73%
22-Apr-2024 03:00Light Rain29°C4 mph, SW15%10000m1008hPa75%
22-Apr-2024 06:00Light Rain32°C7 mph, SW14%10000m1009hPa58%
22-Apr-2024 09:00Broken Clouds34°C13 mph, SW64%10000m1008hPa53%
22-Apr-2024 12:00Broken Clouds33°C13 mph, SW60%10000m1006hPa53%
22-Apr-2024 15:00Overcast Clouds32°C4 mph, W93%10000m1007hPa60%
22-Apr-2024 18:00Broken Clouds30°C4 mph, W59%10000m1008hPa71%